sensor_id;sensor_type;location;lat;lon;timestamp;pressure;altitude;pressure_sealevel;temperature;humidity
58473;BME280;44775;51.564;5.460;2023-08-01T00:00:53;99640.78;;;15.42;100.00
58473;BME280;44775;51.564;5.460;2023-08-01T00:03:18;99636.97;;;15.49;100.00
58473;BME280;44775;51.564;5.460;2023-08-01T00:05:44;99627.91;;;15.44;100.00
58473;BME280;44775;51.564;5.460;2023-08-01T00:08:12;99616.91;;;15.45;100.00
58473;BME280;44775;51.564;5.460;2023-08-01T00:10:38;99613.66;;;15.43;100.00
58473;BME280;44775;51.564;5.460;2023-08-01T00:13:03;99612.47;;;15.39;100.00
58473;BME280;44775;51.564;5.460;2023-08-01T00:15:29;99613.50;;;15.38;100.00
58473;BME280;44775;51.564;5.460;2023-08-01T00:17:54;99616.44;;;15.37;100.00
58473;BME280;44775;51.564;5.460;2023-08-01T00:20:19;99608.13;;;15.38;100.00
58473;BME280;44775;51.564;5.460;2023-08-01T00:22:45;99607.53;;;15.36;100.00
58473;BME280;44775;51.564;5.460;2023-08-01T00:25:10;99609.88;;;15.32;100.00
58473;BME280;44775;51.564;5.460;2023-08-01T00:27:36;99620.50;;;15.27;100.00
58473;BME280;44775;51.564;5.460;2023-08-01T00:30:01;99622.47;;;15.32;100.00
58473;BME280;44775;51.564;5.460;2023-08-01T00:32:26;99615.81;;;15.34;100.00
58473;BME280;44775;51.564;5.460;2023-08-01T00:34:52;99608.91;;;15.27;100.00
58473;BME280;44775;51.564;5.460;2023-08-01T00:37:17;99609.50;;;15.29;100.00
58473;BME280;44775;51.564;5.460;2023-08-01T00:39:42;99602.47;;;15.28;100.00
58473;BME280;44775;51.564;5.460;2023-08-01T00:42:08;99596.72;;;15.24;100.00
58473;BME280;44775;51.564;5.460;2023-08-01T00:44:33;99601.75;;;15.21;100.00
58473;BME280;44775;51.564;5.460;2023-08-01T00:46:58;99608.31;;;15.25;100.00
58473;BME280;44775;51.564;5.460;2023-08-01T00:49:24;99606.06;;;15.22;100.00
58473;BME280;44775;51.564;5.460;2023-08-01T00:51:49;99610.53;;;15.16;100.00
58473;BME280;44775;51.564;5.460;2023-08-01T00:54:15;99602.09;;;15.13;100.00
58473;BME280;44775;51.564;5.460;2023-08-01T00:56:41;99600.41;;;15.11;100.00
58473;BME280;44775;51.564;5.460;2023-08-01T00:59:07;99598.19;;;15.08;100.00
58473;BME280;44775;51.564;5.460;2023-08-01T01:01:32;99610.00;;;15.07;100.00
58473;BME280;44775;51.564;5.460;2023-08-01T01:03:58;99606.88;;;15.10;100.00
58473;BME280;44775;51.564;5.460;2023-08-01T01:06:32;99605.22;;;15.09;100.00
58473;BME280;44775;51.564;5.460;2023-08-01T01:08:59;99603.44;;;15.03;100.00
58473;BME280;44775;51.564;5.460;2023-08-01T01:11:25;99601.56;;;15.04;100.00
58473;BME280;44775;51.564;5.460;2023-08-01T01:13:50;99594.56;;;15.03;100.00
58473;BME280;44775;51.564;5.460;2023-08-01T01:16:19;99599.34;;;15.01;100.00
58473;BME280;44775;51.564;5.460;2023-08-01T01:18:45;99595.00;;;15.00;100.00
58473;BME280;44775;51.564;5.460;2023-08-01T01:21:10;99592.16;;;14.95;100.00
58473;BME280;44775;51.564;5.460;2023-08-01T01:23:36;99600.47;;;14.93;100.00
58473;BME280;44775;51.564;5.460;2023-08-01T01:26:02;99592.25;;;14.88;100.00
58473;BME280;44775;51.564;5.460;2023-08-01T01:28:29;99593.75;;;14.84;100.00
58473;BME280;44775;51.564;5.460;2023-08-01T01:30:55;99586.16;;;14.81;100.00
58473;BME280;44775;51.564;5.460;2023-08-01T01:33:21;99599.38;;;14.82;100.00
58473;BME280;44775;51.564;5.460;2023-08-01T01:35:47;99595.03;;;14.81;100.00
58473;BME280;44775;51.564;5.460;2023-08-01T01:38:13;99599.22;;;14.77;100.00
58473;BME280;44775;51.564;5.460;2023-08-01T01:40:38;99594.91;;;14.76;100.00
58473;BME280;44775;51.564;5.460;2023-08-01T01:43:03;99592.06;;;14.71;100.00
58473;BME280;44775;51.564;5.460;2023-08-01T01:45:29;99591.69;;;14.68;100.00
58473;BME280;44775;51.564;5.460;2023-08-01T01:47:54;99591.25;;;14.71;100.00
58473;BME280;44775;51.564;5.460;2023-08-01T01:50:19;99588.56;;;14.71;100.00
58473;BME280;44775;51.564;5.460;2023-08-01T01:52:45;99587.38;;;14.67;100.00
58473;BME280;44775;51.564;5.460;2023-08-01T01:55:11;99589.16;;;14.73;100.00
58473;BME280;44775;51.564;5.460;2023-08-01T01:57:36;99588.09;;;14.74;100.00
58473;BME280;44775;51.564;5.460;2023-08-01T02:00:05;99583.19;;;14.71;100.00
58473;BME280;44775;51.564;5.460;2023-08-01T02:02:31;99581.63;;;14.63;100.00
58473;BME280;44775;51.564;5.460;2023-08-01T02:04:56;99585.50;;;14.67;100.00
58473;BME280;44775;51.564;5.460;2023-08-01T02:07:22;99583.88;;;14.66;100.00
58473;BME280;44775;51.564;5.460;2023-08-01T02:09:47;99582.06;;;14.60;100.00
58473;BME280;44775;51.564;5.460;2023-08-01T02:12:12;99574.09;;;14.53;100.00
58473;BME280;44775;51.564;5.460;2023-08-01T02:14:40;99582.41;;;14.52;100.00
58473;BME280;44775;51.564;5.460;2023-08-01T02:17:05;99578.34;;;14.43;100.00
58473;BME280;44775;51.564;5.460;2023-08-01T02:19:31;99570.09;;;14.37;100.00
58473;BME280;44775;51.564;5.460;2023-08-01T02:21:57;99582.34;;;14.33;100.00
58473;BME280;44775;51.564;5.460;2023-08-01T02:24:23;99578.84;;;14.33;100.00
58473;BME280;44775;51.564;5.460;2023-08-01T02:26:49;99580.56;;;14.27;100.00
58473;BME280;44775;51.564;5.460;2023-08-01T02:29:15;99582.88;;;14.24;100.00
58473;BME280;44775;51.564;5.460;2023-08-01T02:31:40;99583.25;;;14.27;100.00
58473;BME280;44775;51.564;5.460;2023-08-01T02:34:05;99579.00;;;14.20;100.00
58473;BME280;44775;51.564;5.460;2023-08-01T02:36:31;99584.59;;;14.18;100.00
58473;BME280;44775;51.564;5.460;2023-08-01T02:38:56;99578.78;;;14.21;100.00
58473;BME280;44775;51.564;5.460;2023-08-01T02:41:21;99584.00;;;14.16;100.00
58473;BME280;44775;51.564;5.460;2023-08-01T02:43:46;99591.00;;;14.17;100.00
58473;BME280;44775;51.564;5.460;2023-08-01T02:46:12;99591.38;;;14.21;100.00
58473;BME280;44775;51.564;5.460;2023-08-01T02:48:37;99599.66;;;14.19;100.00
58473;BME280;44775;51.564;5.460;2023-08-01T02:51:02;99598.03;;;14.18;100.00
58473;BME280;44775;51.564;5.460;2023-08-01T02:53:28;99598.03;;;14.18;100.00
58473;BME280;44775;51.564;5.460;2023-08-01T02:55:53;99603.56;;;14.23;100.00
58473;BME280;44775;51.564;5.460;2023-08-01T02:58:19;99599.66;;;14.19;100.00
58473;BME280;44775;51.564;5.460;2023-08-01T03:00:44;99599.22;;;14.22;100.00
58473;BME280;44775;51.564;5.460;2023-08-01T03:03:10;99600.66;;;14.25;100.00
58473;BME280;44775;51.564;5.460;2023-08-01T03:05:36;99596.53;;;14.22;100.00
58473;BME280;44775;51.564;5.460;2023-08-01T03:08:03;99595.94;;;14.20;100.00
58473;BME280;44775;51.564;5.460;2023-08-01T03:10:28;99590.78;;;14.18;100.00
58473;BME280;44775;51.564;5.460;2023-08-01T03:12:53;99584.00;;;14.16;100.00
58473;BME280;44775;51.564;5.460;2023-08-01T03:15:18;99586.06;;;14.14;100.00
58473;BME280;44775;51.564;5.460;2023-08-01T03:17:44;99594.97;;;14.14;100.00
58473;BME280;44775;51.564;5.460;2023-08-01T03:20:09;99593.47;;;14.18;100.00
58473;BME280;44775;51.564;5.460;2023-08-01T03:22:40;99582.81;;;14.12;100.00
58473;BME280;44775;51.564;5.460;2023-08-01T03:25:06;99587.28;;;14.18;100.00
58473;BME280;44775;51.564;5.460;2023-08-01T03:27:34;99592.66;;;14.18;100.00
58473;BME280;44775;51.564;5.460;2023-08-01T03:29:59;99596.53;;;14.22;100.00
58473;BME280;44775;51.564;5.460;2023-08-01T03:32:25;99602.53;;;14.24;100.00
58473;BME280;44775;51.564;5.460;2023-08-01T03:34:50;99602.53;;;14.24;100.00
58473;BME280;44775;51.564;5.460;2023-08-01T03:37:16;99591.38;;;14.21;100.00
58473;BME280;44775;51.564;5.460;2023-08-01T03:39:42;99599.97;;;14.29;100.00
58473;BME280;44775;51.564;5.460;2023-08-01T03:42:07;99601.97;;;14.34;100.00
58473;BME280;44775;51.564;5.460;2023-08-01T03:44:33;99595.59;;;14.35;100.00
58473;BME280;44775;51.564;5.460;2023-08-01T03:46:59;99596.41;;;14.35;100.00
58473;BME280;44775;51.564;5.460;2023-08-01T03:49:24;99606.78;;;14.32;100.00
58473;BME280;44775;51.564;5.460;2023-08-01T03:51:49;99595.78;;;14.33;100.00
58473;BME280;44775;51.564;5.460;2023-08-01T03:54:15;99599.75;;;14.31;100.00
58473;BME280;44775;51.564;5.460;2023-08-01T03:56:40;99603.41;;;14.36;100.00
58473;BME280;44775;51.564;5.460;2023-08-01T03:59:08;99601.09;;;14.40;100.00
58473;BME280;44775;51.564;5.460;2023-08-01T04:01:33;99603.56;;;14.41;100.00
58473;BME280;44775;51.564;5.460;2023-08-01T04:03:59;99601.34;;;14.38;100.00
58473;BME280;44775;51.564;5.460;2023-08-01T04:06:24;99602.16;;;14.39;100.00
58473;BME280;44775;51.564;5.460;2023-08-01T04:08:49;99602.34;;;14.37;100.00
58473;BME280;44775;51.564;5.460;2023-08-01T04:11:15;99601.78;;;14.35;100.00
58473;BME280;44775;51.564;5.460;2023-08-01T04:13:40;99598.66;;;14.38;100.00
58473;BME280;44775;51.564;5.460;2023-08-01T04:16:05;99605.66;;;14.39;100.00
58473;BME280;44775;51.564;5.460;2023-08-01T04:18:31;99600.88;;;14.41;100.00
58473;BME280;44775;51.564;5.460;2023-08-01T04:20:56;99606.84;;;14.44;100.00
58473;BME280;44775;51.564;5.460;2023-08-01T04:23:21;99606.25;;;14.41;100.00
58473;BME280;44775;51.564;5.460;2023-08-01T04:25:47;99607.44;;;14.46;100.00
58473;BME280;44775;51.564;5.460;2023-08-01T04:28:12;99599.84;;;14.43;100.00
58473;BME280;44775;51.564;5.460;2023-08-01T04:30:37;99603.25;;;14.50;100.00
58473;BME280;44775;51.564;5.460;2023-08-01T04:33:04;99598.72;;;14.50;100.00
58473;BME280;44775;51.564;5.460;2023-08-01T04:35:29;99597.63;;;14.58;100.00
58473;BME280;44775;51.564;5.460;2023-08-01T04:37:54;99605.69;;;14.58;100.00
58473;BME280;44775;51.564;5.460;2023-08-01T04:40:20;99605.28;;;14.54;100.00
58473;BME280;44775;51.564;5.460;2023-08-01T04:42:45;99611.31;;;14.50;100.00
58473;BME280;44775;51.564;5.460;2023-08-01T04:45:10;99609.66;;;14.55;100.00
58473;BME280;44775;51.564;5.460;2023-08-01T04:47:35;99610.59;;;14.61;100.00
58473;BME280;44775;51.564;5.460;2023-08-01T04:50:01;99617.91;;;14.54;100.00
58473;BME280;44775;51.564;5.460;2023-08-01T04:52:26;99621.84;;;14.58;100.00
58473;BME280;44775;51.564;5.460;2023-08-01T04:54:51;99622.19;;;14.61;100.00
58473;BME280;44775;51.564;5.460;2023-08-01T04:57:17;99631.91;;;14.62;100.00
58473;BME280;44775;51.564;5.460;2023-08-01T04:59:42;99623.00;;;14.62;100.00
58473;BME280;44775;51.564;5.460;2023-08-01T05:02:07;99624.13;;;14.54;100.00
58473;BME280;44775;51.564;5.460;2023-08-01T05:04:33;99633.59;;;14.57;100.00
58473;BME280;44775;51.564;5.460;2023-08-01T05:06:58;99626.63;;;14.49;100.00
58473;BME280;44775;51.564;5.460;2023-08-01T05:09:23;99628.94;;;14.46;100.00
58473;BME280;44775;51.564;5.460;2023-08-01T05:11:49;99615.59;;;14.39;100.00
58473;BME280;44775;51.564;5.460;2023-08-01T05:14:14;99626.25;;;14.46;100.00
58473;BME280;44775;51.564;5.460;2023-08-01T05:16:39;99627.97;;;14.40;100.00
58473;BME280;44775;51.564;5.460;2023-08-01T05:19:05;99632.53;;;14.39;100.00
58473;BME280;44775;51.564;5.460;2023-08-01T05:21:30;99630.91;;;14.38;100.00
58473;BME280;44775;51.564;5.460;2023-08-01T05:23:55;99629.72;;;14.34;100.00
58473;BME280;44775;51.564;5.460;2023-08-01T05:26:20;99620.59;;;14.35;100.00
58473;BME280;44775;51.564;5.460;2023-08-01T05:28:46;99608.28;;;14.28;100.00
58473;BME280;44775;51.564;5.460;2023-08-01T05:31:11;99599.09;;;14.35;100.00
58473;BME280;44775;51.564;5.460;2023-08-01T05:33:37;99620.59;;;14.35;100.00
58473;BME280;44775;51.564;5.460;2023-08-01T05:36:02;99630.72;;;14.33;100.00
58473;BME280;44775;51.564;5.460;2023-08-01T05:38:28;99631.72;;;14.39;100.00
58473;BME280;44775;51.564;5.460;2023-08-01T05:40:53;99635.28;;;14.33;100.00
58473;BME280;44775;51.564;5.460;2023-08-01T05:43:18;99640.22;;;14.36;100.00
58473;BME280;44775;51.564;5.460;2023-08-01T05:45:43;99632.41;;;14.34;100.00
58473;BME280;44775;51.564;5.460;2023-08-01T05:48:09;99626.34;;;14.39;100.00
58473;BME280;44775;51.564;5.460;2023-08-01T05:50:35;99630.38;;;14.48;100.00
58473;BME280;44775;51.564;5.460;2023-08-01T05:53:01;99633.91;;;14.67;100.00
58473;BME280;44775;51.564;5.460;2023-08-01T05:55:26;99639.16;;;14.62;100.00
58473;BME280;44775;51.564;5.460;2023-08-01T05:57:51;99644.94;;;14.77;100.00
58473;BME280;44775;51.564;5.460;2023-08-01T06:00:18;99646.97;;;14.82;100.00
58473;BME280;44775;51.564;5.460;2023-08-01T06:02:46;99653.66;;;14.91;100.00
58473;BME280;44775;51.564;5.460;2023-08-01T06:05:12;99655.19;;;14.87;100.00
58473;BME280;44775;51.564;5.460;2023-08-01T06:07:37;99661.81;;;15.03;100.00
58473;BME280;44775;51.564;5.460;2023-08-01T06:10:03;99651.53;;;15.11;100.00
58473;BME280;44775;51.564;5.460;2023-08-01T06:12:29;99649.81;;;15.17;100.00
58473;BME280;44775;51.564;5.460;2023-08-01T06:14:55;99654.06;;;15.25;100.00
58473;BME280;44775;51.564;5.460;2023-08-01T06:17:20;99669.09;;;15.32;100.00
58473;BME280;44775;51.564;5.460;2023-08-01T06:19:45;99663.63;;;15.39;100.00
58473;BME280;44775;51.564;5.460;2023-08-01T06:22:11;99666.94;;;15.53;100.00
58473;BME280;44775;51.564;5.460;2023-08-01T06:24:36;99663.63;;;15.51;100.00
58473;BME280;44775;51.564;5.460;2023-08-01T06:27:02;99659.78;;;15.58;100.00
58473;BME280;44775;51.564;5.460;2023-08-01T06:29:27;99664.88;;;15.67;100.00
58473;BME280;44775;51.564;5.460;2023-08-01T06:31:52;99668.22;;;15.62;100.00
58473;BME280;44775;51.564;5.460;2023-08-01T06:34:18;99665.00;;;15.72;100.00
58473;BME280;44775;51.564;5.460;2023-08-01T06:36:43;99668.75;;;15.82;100.00
58473;BME280;44775;51.564;5.460;2023-08-01T06:39:08;99669.81;;;15.81;100.00
58473;BME280;44775;51.564;5.460;2023-08-01T06:41:33;99673.59;;;15.80;100.00
58473;BME280;44775;51.564;5.460;2023-08-01T06:43:59;99667.72;;;15.84;100.00
58473;BME280;44775;51.564;5.460;2023-08-01T06:46:24;99670.53;;;15.89;100.00
58473;BME280;44775;51.564;5.460;2023-08-01T06:48:49;99679.31;;;15.96;100.00
58473;BME280;44775;51.564;5.460;2023-08-01T06:51:15;99676.19;;;16.11;100.00
58473;BME280;44775;51.564;5.460;2023-08-01T06:53:40;99681.69;;;16.39;100.00
58473;BME280;44775;51.564;5.460;2023-08-01T06:56:05;99685.66;;;16.72;100.00
58473;BME280;44775;51.564;5.460;2023-08-01T06:58:31;99682.00;;;17.02;100.00
58473;BME280;44775;51.564;5.460;2023-08-01T07:00:56;99688.59;;;17.22;100.00
58473;BME280;44775;51.564;5.460;2023-08-01T07:03:22;99700.28;;;17.11;100.00
58473;BME280;44775;51.564;5.460;2023-08-01T07:05:47;99700.56;;;17.27;100.00
58473;BME280;44775;51.564;5.460;2023-08-01T07:08:12;99701.34;;;17.39;100.00
58473;BME280;44775;51.564;5.460;2023-08-01T07:10:38;99706.63;;;17.34;100.00
58473;BME280;44775;51.564;5.460;2023-08-01T07:13:03;99697.03;;;17.26;100.00
58473;BME280;44775;51.564;5.460;2023-08-01T07:15:32;99703.31;;;17.43;100.00
58473;BME280;44775;51.564;5.460;2023-08-01T07:17:57;99706.06;;;17.60;100.00
58473;BME280;44775;51.564;5.460;2023-08-01T07:20:23;99710.28;;;17.85;100.00
58473;BME280;44775;51.564;5.460;2023-08-01T07:22:48;99706.41;;;18.09;100.00
58473;BME280;44775;51.564;5.460;2023-08-01T07:25:13;99702.81;;;17.75;100.00
58473;BME280;44775;51.564;5.460;2023-08-01T07:27:40;99703.47;;;17.65;100.00
58473;BME280;44775;51.564;5.460;2023-08-01T07:30:06;99700.47;;;17.79;100.00
58473;BME280;44775;51.564;5.460;2023-08-01T07:32:31;99706.88;;;18.06;100.00
58473;BME280;44775;51.564;5.460;2023-08-01T07:34:57;99689.31;;;18.26;100.00
58473;BME280;44775;51.564;5.460;2023-08-01T07:37:22;99709.53;;;18.74;100.00
58473;BME280;44775;51.564;5.460;2023-08-01T07:39:49;99710.88;;;19.15;100.00
58473;BME280;44775;51.564;5.460;2023-08-01T07:42:15;99712.56;;;18.99;100.00
58473;BME280;44775;51.564;5.460;2023-08-01T07:44:40;99710.84;;;18.93;100.00
58473;BME280;44775;51.564;5.460;2023-08-01T07:47:05;99711.34;;;18.51;100.00
58473;BME280;44775;51.564;5.460;2023-08-01T07:49:30;99694.66;;;18.21;100.00
58473;BME280;44775;51.564;5.460;2023-08-01T07:51:56;99709.41;;;17.79;100.00
58473;BME280;44775;51.564;5.460;2023-08-01T07:54:21;99714.97;;;17.61;100.00
58473;BME280;44775;51.564;5.460;2023-08-01T07:56:46;99703.75;;;17.52;100.00
58473;BME280;44775;51.564;5.460;2023-08-01T07:59:14;99706.81;;;17.44;100.00
58473;BME280;44775;51.564;5.460;2023-08-01T08:01:39;99706.66;;;17.62;100.00
58473;BME280;44775;51.564;5.460;2023-08-01T08:04:05;99701.22;;;17.91;100.00
58473;BME280;44775;51.564;5.460;2023-08-01T08:06:30;99706.78;;;18.35;100.00
58473;BME280;44775;51.564;5.460;2023-08-01T08:08:56;99711.19;;;18.41;100.00
58473;BME280;44775;51.564;5.460;2023-08-01T08:11:21;99715.44;;;18.54;100.00
58473;BME280;44775;51.564;5.460;2023-08-01T08:13:48;99722.69;;;18.31;100.00
58473;BME280;44775;51.564;5.460;2023-08-01T08:16:14;99725.22;;;18.04;100.00
58473;BME280;44775;51.564;5.460;2023-08-01T08:18:39;99722.53;;;18.21;100.00
58473;BME280;44775;51.564;5.460;2023-08-01T08:21:04;99724.72;;;18.41;100.00
58473;BME280;44775;51.564;5.460;2023-08-01T08:23:30;99719.81;;;18.94;100.00
58473;BME280;44775;51.564;5.460;2023-08-01T08:25:55;99717.28;;;18.87;100.00
58473;BME280;44775;51.564;5.460;2023-08-01T08:28:29;99729.06;;;18.98;100.00
58473;BME280;44775;51.564;5.460;2023-08-01T08:30:58;99729.25;;;19.35;100.00
58473;BME280;44775;51.564;5.460;2023-08-01T08:33:23;99728.78;;;19.65;100.00
58473;BME280;44775;51.564;5.460;2023-08-01T08:35:49;99725.16;;;19.59;100.00
58473;BME280;44775;51.564;5.460;2023-08-01T08:38:15;99734.84;;;19.28;100.00
58473;BME280;44775;51.564;5.460;2023-08-01T08:40:43;99732.56;;;18.76;100.00
58473;BME280;44775;51.564;5.460;2023-08-01T08:43:14;99739.97;;;18.13;100.00
58473;BME280;44775;51.564;5.460;2023-08-01T08:45:42;99735.41;;;17.68;100.00
58473;BME280;44775;51.564;5.460;2023-08-01T08:48:17;99751.41;;;17.58;100.00
58473;BME280;44775;51.564;5.460;2023-08-01T08:50:45;99733.50;;;17.40;100.00
58473;BME280;44775;51.564;5.460;2023-08-01T08:53:11;99751.31;;;17.13;100.00
58473;BME280;44775;51.564;5.460;2023-08-01T08:55:39;99740.00;;;16.75;100.00
58473;BME280;44775;51.564;5.460;2023-08-01T08:58:05;99741.84;;;16.63;100.00
58473;BME280;44775;51.564;5.460;2023-08-01T09:00:31;99746.44;;;16.51;100.00
58473;BME280;44775;51.564;5.460;2023-08-01T09:02:56;99744.53;;;16.40;100.00
58473;BME280;44775;51.564;5.460;2023-08-01T09:05:27;99743.50;;;16.41;100.00
58473;BME280;44775;51.564;5.460;2023-08-01T09:07:55;99739.84;;;16.23;100.00
58473;BME280;44775;51.564;5.460;2023-08-01T09:10:21;99749.91;;;16.40;100.00
58473;BME280;44775;51.564;5.460;2023-08-01T09:12:47;99749.09;;;16.63;100.00
58473;BME280;44775;51.564;5.460;2023-08-01T09:15:13;99745.50;;;16.57;100.00
58473;BME280;44775;51.564;5.460;2023-08-01T09:17:51;99744.19;;;16.71;100.00
58473;BME280;44775;51.564;5.460;2023-08-01T09:20:17;99731.78;;;16.82;100.00
58473;BME280;44775;51.564;5.460;2023-08-01T09:22:43;99751.69;;;17.05;100.00
58473;BME280;44775;51.564;5.460;2023-08-01T09:25:09;99754.25;;;17.11;100.00
58473;BME280;44775;51.564;5.460;2023-08-01T09:27:35;99752.69;;;17.27;100.00
58473;BME280;44775;51.564;5.460;2023-08-01T09:30:11;99769.06;;;17.49;100.00
58473;BME280;44775;51.564;5.460;2023-08-01T09:32:39;99763.50;;;17.56;100.00
58473;BME280;44775;51.564;5.460;2023-08-01T09:35:04;99759.41;;;17.53;100.00
58473;BME280;44775;51.564;5.460;2023-08-01T09:37:42;99763.78;;;17.42;100.00
58473;BME280;44775;51.564;5.460;2023-08-01T09:40:11;99760.31;;;17.30;100.00
58473;BME280;44775;51.564;5.460;2023-08-01T09:42:43;99773.97;;;17.52;100.00
58473;BME280;44775;51.564;5.460;2023-08-01T09:45:13;99776.63;;;17.23;100.00
58473;BME280;44775;51.564;5.460;2023-08-01T09:47:42;99764.84;;;17.01;100.00
58473;BME280;44775;51.564;5.460;2023-08-01T09:50:11;99770.38;;;16.94;100.00
58473;BME280;44775;51.564;5.460;2023-08-01T09:52:38;99783.97;;;16.88;100.00
58473;BME280;44775;51.564;5.460;2023-08-01T09:55:04;99777.84;;;16.81;100.00
58473;BME280;44775;51.564;5.460;2023-08-01T09:57:30;99786.28;;;16.72;100.00
58473;BME280;44775;51.564;5.460;2023-08-01T09:59:57;99788.53;;;16.64;100.00
58473;BME280;44775;51.564;5.460;2023-08-01T10:02:24;99787.34;;;16.48;100.00
58473;BME280;44775;51.564;5.460;2023-08-01T10:04:52;99782.63;;;16.43;100.00
58473;BME280;44775;51.564;5.460;2023-08-01T10:07:23;99786.91;;;16.74;100.00
58473;BME280;44775;51.564;5.460;2023-08-01T10:09:50;99794.41;;;16.96;100.00
58473;BME280;44775;51.564;5.460;2023-08-01T10:12:17;99788.97;;;17.19;100.00
58473;BME280;44775;51.564;5.460;2023-08-01T10:14:43;99795.94;;;17.84;100.00
58473;BME280;44775;51.564;5.460;2023-08-01T10:17:10;99801.13;;;18.48;100.00
58473;BME280;44775;51.564;5.460;2023-08-01T10:19:37;99795.25;;;19.29;100.00
58473;BME280;44775;51.564;5.460;2023-08-01T10:22:04;99793.13;;;20.02;100.00
58473;BME280;44775;51.564;5.460;2023-08-01T10:24:31;99801.56;;;20.05;100.00
58473;BME280;44775;51.564;5.460;2023-08-01T10:26:57;99811.28;;;19.74;100.00
58473;BME280;44775;51.564;5.460;2023-08-01T10:29:34;99808.19;;;19.66;100.00
58473;BME280;44775;51.564;5.460;2023-08-01T10:31:59;99814.13;;;19.41;100.00
58473;BME280;44775;51.564;5.460;2023-08-01T10:34:25;99811.75;;;19.05;100.00
58473;BME280;44775;51.564;5.460;2023-08-01T10:36:57;99814.34;;;18.78;100.00
58473;BME280;44775;51.564;5.460;2023-08-01T10:39:24;99809.06;;;18.21;100.00
58473;BME280;44775;51.564;5.460;2023-08-01T10:42:02;99795.09;;;17.96;100.00
58473;BME280;44775;51.564;5.460;2023-08-01T10:44:29;99790.88;;;17.88;100.00
58473;BME280;44775;51.564;5.460;2023-08-01T10:47:01;99808.44;;;17.85;100.00
58473;BME280;44775;51.564;5.460;2023-08-01T10:49:52;99803.56;;;18.16;100.00
58473;BME280;44775;51.564;5.460;2023-08-01T10:52:19;99794.06;;;18.64;100.00
58473;BME280;44775;51.564;5.460;2023-08-01T10:54:58;99810.25;;;19.37;100.00
58473;BME280;44775;51.564;5.460;2023-08-01T10:57:25;99803.91;;;19.70;100.00
58473;BME280;44775;51.564;5.460;2023-08-01T10:59:51;99812.84;;;19.92;100.00
58473;BME280;44775;51.564;5.460;2023-08-01T11:02:25;99821.97;;;19.86;100.00
58473;BME280;44775;51.564;5.460;2023-08-01T11:05:03;99815.25;;;19.67;100.00
58473;BME280;44775;51.564;5.460;2023-08-01T11:07:30;99812.47;;;20.11;100.00
58473;BME280;44775;51.564;5.460;2023-08-01T11:10:13;99828.47;;;20.71;100.00
58473;BME280;44775;51.564;5.460;2023-08-01T11:12:41;99833.16;;;20.49;100.00
58473;BME280;44775;51.564;5.460;2023-08-01T11:15:08;99835.84;;;20.17;100.00
58473;BME280;44775;51.564;5.460;2023-08-01T11:17:36;99828.88;;;19.72;100.00
58473;BME280;44775;51.564;5.460;2023-08-01T11:20:09;99819.97;;;19.54;100.00
58473;BME280;44775;51.564;5.460;2023-08-01T11:22:49;99825.16;;;19.34;100.00
58473;BME280;44775;51.564;5.460;2023-08-01T11:25:14;99829.09;;;19.48;100.00
58473;BME280;44775;51.564;5.460;2023-08-01T11:27:39;99836.03;;;19.83;100.00
58473;BME280;44775;51.564;5.460;2023-08-01T11:30:05;99831.59;;;19.72;100.00
58473;BME280;44775;51.564;5.460;2023-08-01T11:32:36;99841.00;;;19.64;100.00
58473;BME280;44775;51.564;5.460;2023-08-01T11:35:02;99841.78;;;19.87;100.00
58473;BME280;44775;51.564;5.460;2023-08-01T11:37:28;99844.88;;;19.95;100.00
58473;BME280;44775;51.564;5.460;2023-08-01T11:39:54;99854.91;;;20.22;99.91
58473;BME280;44775;51.564;5.460;2023-08-01T11:42:20;99850.13;;;20.34;98.56
58473;BME280;44775;51.564;5.460;2023-08-01T11:44:45;99858.66;;;20.21;99.21
58473;BME280;44775;51.564;5.460;2023-08-01T11:47:15;99859.19;;;20.18;97.16
58473;BME280;44775;51.564;5.460;2023-08-01T11:49:48;99870.81;;;20.13;99.29
58473;BME280;44775;51.564;5.460;2023-08-01T11:52:27;99869.09;;;20.07;95.35
58473;BME280;44775;51.564;5.460;2023-08-01T11:54:53;99866.56;;;19.95;92.54
58473;BME280;44775;51.564;5.460;2023-08-01T11:57:20;99872.63;;;20.08;89.74
58473;BME280;44775;51.564;5.460;2023-08-01T11:59:51;99864.66;;;20.82;92.11
58473;BME280;44775;51.564;5.460;2023-08-01T12:02:21;99871.16;;;21.18;87.04
58473;BME280;44775;51.564;5.460;2023-08-01T12:04:47;99858.38;;;21.19;89.97
58473;BME280;44775;51.564;5.460;2023-08-01T12:07:13;99866.81;;;21.65;84.38
58473;BME280;44775;51.564;5.460;2023-08-01T12:09:39;99869.09;;;22.04;83.33
58473;BME280;44775;51.564;5.460;2023-08-01T12:12:05;99870.72;;;21.95;80.34
58473;BME280;44775;51.564;5.460;2023-08-01T12:14:30;99879.31;;;21.66;81.71
58473;BME280;44775;51.564;5.460;2023-08-01T12:16:56;99880.88;;;21.47;82.80
58473;BME280;44775;51.564;5.460;2023-08-01T12:19:21;99873.13;;;21.28;88.48
58473;BME280;44775;51.564;5.460;2023-08-01T12:21:48;99867.72;;;20.91;89.47
58473;BME280;44775;51.564;5.460;2023-08-01T12:24:14;99870.84;;;20.72;91.95
58473;BME280;44775;51.564;5.460;2023-08-01T12:26:39;99871.97;;;20.77;93.06
58473;BME280;44775;51.564;5.460;2023-08-01T12:29:04;99875.88;;;21.33;91.85
58473;BME280;44775;51.564;5.460;2023-08-01T12:31:30;99877.94;;;22.47;84.06
58473;BME280;44775;51.564;5.460;2023-08-01T12:33:56;99880.09;;;23.26;81.14
58473;BME280;44775;51.564;5.460;2023-08-01T12:36:21;99885.56;;;23.16;74.58
58473;BME280;44775;51.564;5.460;2023-08-01T12:38:47;99886.63;;;22.84;77.44
58473;BME280;44775;51.564;5.460;2023-08-01T12:41:12;99880.13;;;22.45;76.97
58473;BME280;44775;51.564;5.460;2023-08-01T12:43:38;99882.56;;;22.51;78.91
58473;BME280;44775;51.564;5.460;2023-08-01T12:46:03;99891.84;;;22.76;75.16